Time;durP1;ratioP1;P1;durP2;ratioP2;P2;SDS_P1;SDS_P2;PMS_P1;PMS_P2;Temp;Humidity;BMP_temperature;BMP_pressure;BME280_temperature;BME280_humidity;BME280_pressure;Samples;Min_cycle;Max_cycle;Signal;HPM_P1;HPM_P2
2021/10/01 00:00:50;;;;;;;1.80;1.50;;;17.40;99.90;;;;;;5062997;28;20238;-76
2021/10/01 00:03:17;;;;;;;2.00;1.85;;;17.30;99.90;;;;;;5061133;28;20217;-77
2021/10/01 00:05:44;;;;;;;2.45;1.58;;;17.40;99.90;;;;;;5065340;28;20712;-77
2021/10/01 00:08:12;;;;;;;1.65;1.55;;;17.30;99.90;;;;;;5061648;28;20214;-77
2021/10/01 00:10:39;;;;;;;1.83;1.55;;;17.40;99.90;;;;;;5060168;28;20276;-76
2021/10/01 00:13:07;;;;;;;2.33;1.50;;;17.40;99.90;;;;;;5064051;28;20228;-77
2021/10/01 00:15:35;;;;;;;2.22;1.73;;;17.30;99.90;;;;;;5058915;28;20246;-78
2021/10/01 00:18:02;;;;;;;3.05;2.20;;;17.30;99.90;;;;;;5061197;28;20234;-76
2021/10/01 00:20:30;;;;;;;2.35;2.15;;;17.40;99.90;;;;;;5059039;28;20650;-78
2021/10/01 00:22:57;;;;;;;3.30;2.03;;;17.50;99.90;;;;;;5060092;28;20227;-75
2021/10/01 00:25:25;;;;;;;2.67;1.90;;;17.50;99.90;;;;;;5052180;28;20222;-76
2021/10/01 00:27:52;;;;;;;4.35;2.28;;;17.60;99.90;;;;;;5057084;28;20210;-74
2021/10/01 00:30:19;;;;;;;2.58;2.13;;;17.60;99.90;;;;;;5061258;28;20214;-76
2021/10/01 00:32:48;;;;;;;4.97;2.50;;;17.60;99.90;;;;;;5063579;28;20797;-76
2021/10/01 00:35:15;;;;;;;7.22;2.53;;;17.60;99.90;;;;;;5058037;28;20275;-75
2021/10/01 00:37:42;;;;;;;3.38;2.75;;;17.60;99.90;;;;;;5064320;28;20226;-75
2021/10/01 00:40:11;;;;;;;3.78;2.55;;;17.60;99.90;;;;;;5057733;28;20226;-76
2021/10/01 00:42:40;;;;;;;2.58;2.15;;;17.60;99.90;;;;;;5040545;28;20636;-76
2021/10/01 00:45:07;;;;;;;4.00;2.60;;;17.60;99.90;;;;;;5040251;28;20252;-75
2021/10/01 00:47:34;;;;;;;2.90;2.60;;;17.50;99.90;;;;;;5063322;28;20637;-75
2021/10/01 00:50:01;;;;;;;5.18;2.42;;;17.50;99.90;;;;;;5063428;28;20766;-77
2021/10/01 00:52:29;;;;;;;3.13;2.15;;;17.40;99.90;;;;;;5062234;28;20226;-78
2021/10/01 00:54:56;;;;;;;2.25;2.05;;;17.40;99.90;;;;;;5064944;28;21173;-77
2021/10/01 00:57:23;;;;;;;2.92;1.60;;;17.20;99.90;;;;;;5062171;28;20271;-76
2021/10/01 00:59:51;;;;;;;2.20;2.00;;;17.10;99.90;;;;;;5067041;28;20722;-75
2021/10/01 01:02:18;;;;;;;1.60;1.50;;;17.10;99.90;;;;;;5062231;28;20226;-76
2021/10/01 01:04:47;;;;;;;1.80;1.70;;;17.10;99.90;;;;;;5064924;28;20271;-75
2021/10/01 01:07:18;;;;;;;1.33;1.23;;;17.10;99.90;;;;;;5062498;28;20226;-75
2021/10/01 01:09:54;;;;;;;2.03;1.35;;;17.00;99.90;;;;;;5068051;28;20665;-75
2021/10/01 01:12:36;;;;;;;1.30;1.20;;;17.00;99.90;;;;;;5064695;28;20267;-74
2021/10/01 01:15:09;;;;;;;1.20;1.10;;;17.00;99.90;;;;;;5065175;28;20284;-75
2021/10/01 01:17:41;;;;;;;0.95;0.95;;;17.00;99.90;;;;;;5061293;28;20225;-75
2021/10/01 01:20:14;;;;;;;1.08;1.08;;;17.00;99.90;;;;;;5062424;28;20221;-74
2021/10/01 01:22:52;;;;;;;1.17;1.10;;;17.00;99.90;;;;;;5063473;28;20295;-74
2021/10/01 01:25:41;;;;;;;1.02;1.02;;;17.00;99.90;;;;;;5060119;28;20229;-75
2021/10/01 01:28:12;;;;;;;1.00;1.00;;;16.90;99.90;;;;;;5027264;28;20226;-74
2021/10/01 01:30:42;;;;;;;1.48;1.05;;;16.90;99.90;;;;;;5080413;22;20225;-76
2021/10/01 01:33:15;;;;;;;0.80;0.80;;;16.90;99.90;;;;;;5045006;28;20220;-76
2021/10/01 01:35:45;;;;;;;0.80;0.80;;;16.90;99.90;;;;;;5042068;28;20704;-75
2021/10/01 01:38:15;;;;;;;1.48;1.27;;;16.90;99.90;;;;;;5044103;28;20292;-76
2021/10/01 01:40:45;;;;;;;0.90;0.90;;;17.00;99.90;;;;;;5042197;28;20292;-76
2021/10/01 01:43:13;;;;;;;0.93;0.90;;;16.90;99.90;;;;;;5037790;28;20231;-76
2021/10/01 01:45:42;;;;;;;1.20;1.00;;;16.90;99.90;;;;;;5047261;28;20222;-75
2021/10/01 01:48:11;;;;;;;1.20;1.10;;;16.90;99.90;;;;;;5042258;28;20226;-75
2021/10/01 01:50:39;;;;;;;1.08;1.00;;;16.90;99.90;;;;;;5053611;28;20713;-75
2021/10/01 01:53:07;;;;;;;1.38;1.00;;;16.90;99.90;;;;;;5060975;28;20226;-75
2021/10/01 01:55:35;;;;;;;0.90;0.90;;;16.90;99.90;;;;;;5059742;28;20669;-76
2021/10/01 01:58:02;;;;;;;1.00;1.00;;;16.90;99.90;;;;;;5051182;28;20222;-75
2021/10/01 02:00:30;;;;;;;1.92;1.25;;;16.80;99.90;;;;;;5048096;28;20829;-75
2021/10/01 02:03:00;;;;;;;1.10;1.00;;;16.80;99.90;;;;;;5039687;28;20640;-75
2021/10/01 02:05:29;;;;;;;1.23;1.13;;;16.80;99.90;;;;;;5050634;28;20770;-75
2021/10/01 02:08:01;;;;;;;1.30;1.20;;;16.80;99.90;;;;;;5035699;28;20787;-75
2021/10/01 02:10:29;;;;;;;1.02;1.02;;;16.70;99.90;;;;;;5041514;28;20230;-75
2021/10/01 02:13:00;;;;;;;1.05;1.05;;;16.80;99.90;;;;;;5037862;28;20238;-75
2021/10/01 02:15:29;;;;;;;1.67;1.20;;;16.70;99.90;;;;;;5042024;28;20227;-75
2021/10/01 02:18:00;;;;;;;1.10;1.10;;;16.70;99.90;;;;;;5039865;28;20219;-75
2021/10/01 02:20:30;;;;;;;1.20;1.10;;;16.60;99.90;;;;;;5039895;28;20296;-75
2021/10/01 02:22:57;;;;;;;1.27;1.17;;;16.60;99.90;;;;;;5057978;28;20696;-75
2021/10/01 02:28:14;;;;;;;0.98;0.98;;;16.60;99.90;;;;;;5056172;28;20225;-75
2021/10/01 02:30:42;;;;;;;2.30;1.70;;;16.50;99.90;;;;;;5046449;28;20283;-75
2021/10/01 02:33:13;;;;;;;2.85;1.40;;;16.40;99.90;;;;;;5038498;28;20642;-76
2021/10/01 02:35:42;;;;;;;1.50;1.40;;;16.30;99.90;;;;;;5042819;28;20287;-76
2021/10/01 02:38:09;;;;;;;1.10;1.10;;;16.30;99.90;;;;;;5052735;28;20227;-75
2021/10/01 02:40:37;;;;;;;3.15;1.63;;;16.30;99.90;;;;;;5040748;28;20238;-76
2021/10/01 02:43:04;;;;;;;1.20;1.10;;;16.20;99.90;;;;;;5041644;28;20272;-76
2021/10/01 02:45:31;;;;;;;0.90;0.90;;;16.20;99.90;;;;;;5064972;28;20677;-75
2021/10/01 02:47:58;;;;;;;1.10;1.10;;;16.30;99.90;;;;;;5061998;28;20217;-75
2021/10/01 02:50:26;;;;;;;1.02;1.02;;;16.40;99.90;;;;;;5064557;28;20234;-76
2021/10/01 02:52:57;;;;;;;1.20;1.10;;;16.40;99.90;;;;;;5062897;28;20278;-73
2021/10/01 02:55:31;;;;;;;1.40;1.30;;;16.40;99.90;;;;;;5065940;28;20221;-75
2021/10/01 02:58:05;;;;;;;1.23;1.13;;;16.40;99.90;;;;;;5062361;28;20274;-75
2021/10/01 03:00:32;;;;;;;1.00;0.90;;;16.40;99.90;;;;;;5064625;28;20333;-75
2021/10/01 03:03:04;;;;;;;1.85;1.13;;;16.40;99.90;;;;;;5064188;28;20703;-75
2021/10/01 03:05:31;;;;;;;1.30;1.20;;;16.40;99.90;;;;;;5067596;28;20295;-75
2021/10/01 03:08:00;;;;;;;0.90;0.90;;;16.40;99.90;;;;;;5062334;28;20255;-75
2021/10/01 03:10:29;;;;;;;0.90;0.90;;;16.50;99.90;;;;;;5060581;28;20748;-73
2021/10/01 03:12:56;;;;;;;0.90;0.90;;;16.40;99.90;;;;;;5058229;28;20282;-75
2021/10/01 03:15:25;;;;;;;1.23;1.10;;;16.50;99.90;;;;;;5058250;28;20214;-75
2021/10/01 03:17:52;;;;;;;1.10;1.10;;;16.40;99.90;;;;;;5043312;28;20223;-74
2021/10/01 03:20:21;;;;;;;0.90;0.90;;;16.40;99.90;;;;;;5042592;28;20253;-75
2021/10/01 03:22:50;;;;;;;1.40;1.27;;;16.40;99.90;;;;;;5043628;28;20575;-75
2021/10/01 03:25:19;;;;;;;1.30;1.20;;;16.40;99.90;;;;;;5049131;28;20777;-76
2021/10/01 03:27:47;;;;;;;1.45;1.23;;;16.40;99.90;;;;;;5044647;28;20223;-75
2021/10/01 03:30:15;;;;;;;1.05;1.05;;;16.40;99.90;;;;;;5040028;28;21122;-75
2021/10/01 03:32:42;;;;;;;1.00;1.00;;;16.40;99.90;;;;;;5037737;28;20861;-75
2021/10/01 03:35:11;;;;;;;1.20;1.10;;;16.40;99.90;;;;;;5038415;28;20287;-76
2021/10/01 03:37:39;;;;;;;1.48;0.90;;;16.40;99.90;;;;;;5037957;28;20221;-75
2021/10/01 03:40:08;;;;;;;1.13;1.00;;;16.40;99.90;;;;;;5057200;28;20236;-75
2021/10/01 03:42:37;;;;;;;1.15;1.15;;;16.40;99.90;;;;;;5041761;28;20283;-75
2021/10/01 03:45:06;;;;;;;1.23;1.23;;;16.40;99.90;;;;;;5034139;28;20218;-74
2021/10/01 03:47:33;;;;;;;1.27;1.17;;;16.40;99.90;;;;;;5039991;28;20215;-74
2021/10/01 03:50:00;;;;;;;1.05;1.05;;;16.40;99.90;;;;;;5028551;28;20234;-75
2021/10/01 03:52:28;;;;;;;1.42;1.33;;;16.30;99.90;;;;;;5035518;28;21995;-75
2021/10/01 03:54:55;;;;;;;1.17;1.17;;;16.20;99.90;;;;;;5040053;28;20245;-76
2021/10/01 03:57:22;;;;;;;0.93;0.93;;;16.20;99.90;;;;;;5038905;28;20229;-76
2021/10/01 03:59:51;;;;;;;1.00;1.00;;;16.20;99.90;;;;;;5041946;28;20222;-75
2021/10/01 04:02:18;;;;;;;1.27;1.17;;;16.20;99.90;;;;;;5041428;28;20223;-74
2021/10/01 04:04:45;;;;;;;1.10;1.10;;;16.20;99.90;;;;;;5037096;28;20272;-76
2021/10/01 04:07:12;;;;;;;1.83;1.30;;;16.20;99.90;;;;;;5046955;28;20807;-76
2021/10/01 04:09:39;;;;;;;1.20;1.10;;;16.20;99.90;;;;;;5059460;28;20315;-76
2021/10/01 04:12:07;;;;;;;1.30;1.20;;;16.20;99.90;;;;;;5042708;28;20710;-77
2021/10/01 04:14:35;;;;;;;1.30;1.20;;;16.20;99.90;;;;;;5039613;28;20225;-75
2021/10/01 04:17:04;;;;;;;1.02;1.02;;;16.20;99.90;;;;;;5037410;28;20214;-75
2021/10/01 04:19:31;;;;;;;1.38;1.27;;;16.20;99.90;;;;;;5044597;28;20226;-75
2021/10/01 04:21:58;;;;;;;1.10;1.10;;;16.20;99.90;;;;;;5042500;28;20218;-75
2021/10/01 04:24:25;;;;;;;1.20;1.20;;;16.20;99.90;;;;;;5036852;28;20234;-76
2021/10/01 04:26:52;;;;;;;1.23;1.15;;;16.20;99.90;;;;;;5037106;28;20318;-75
2021/10/01 04:29:19;;;;;;;1.48;1.30;;;16.10;99.90;;;;;;5038637;28;20264;-75
2021/10/01 04:31:46;;;;;;;1.05;1.05;;;16.10;99.90;;;;;;5038301;28;20305;-75
2021/10/01 04:34:15;;;;;;;1.38;1.27;;;16.10;99.90;;;;;;5036266;28;20648;-76
2021/10/01 04:36:42;;;;;;;1.42;1.20;;;16.10;99.90;;;;;;5045965;28;20723;-75
2021/10/01 04:39:09;;;;;;;1.13;1.02;;;16.00;99.90;;;;;;5043385;28;20636;-75
2021/10/01 04:41:36;;;;;;;1.45;1.35;;;16.00;99.90;;;;;;5043612;28;20292;-76
2021/10/01 04:44:05;;;;;;;1.33;1.23;;;15.90;99.90;;;;;;5046164;28;20276;-75
2021/10/01 04:46:32;;;;;;;2.20;1.35;;;16.00;99.90;;;;;;5050862;28;20218;-76
2021/10/01 04:48:59;;;;;;;1.20;1.10;;;15.90;99.90;;;;;;5043201;28;20233;-76
2021/10/01 04:51:27;;;;;;;1.30;1.20;;;15.90;99.90;;;;;;5040603;28;20336;-76
2021/10/01 04:53:55;;;;;;;1.60;1.50;;;15.90;99.90;;;;;;5037962;28;20370;-76
2021/10/01 04:56:22;;;;;;;1.00;1.00;;;15.90;99.90;;;;;;5038906;28;20272;-75
2021/10/01 04:58:49;;;;;;;1.15;1.15;;;15.80;99.90;;;;;;5039737;28;20272;-76
2021/10/01 05:01:16;;;;;;;1.10;1.10;;;15.80;99.90;;;;;;5039080;28;20222;-76
2021/10/01 05:03:43;;;;;;;1.20;1.10;;;15.80;99.90;;;;;;5042536;28;20277;-75
2021/10/01 05:06:11;;;;;;;1.55;1.20;;;15.80;99.90;;;;;;5044340;28;20276;-75
2021/10/01 05:08:39;;;;;;;1.40;1.30;;;15.70;99.90;;;;;;5038301;28;20222;-75
2021/10/01 05:11:06;;;;;;;1.30;1.20;;;15.70;99.90;;;;;;5039063;28;20223;-75
2021/10/01 05:13:33;;;;;;;1.45;1.35;;;15.70;99.90;;;;;;5039845;28;20227;-76
2021/10/01 05:16:02;;;;;;;1.00;1.00;;;15.60;99.90;;;;;;5063769;28;20244;-76
2021/10/01 05:18:29;;;;;;;1.38;1.27;;;15.60;99.90;;;;;;5062380;28;20578;-75
2021/10/01 05:21:02;;;;;;;1.25;1.15;;;15.60;99.90;;;;;;5069659;28;20225;-76
2021/10/01 05:23:29;;;;;;;1.35;1.25;;;15.60;99.90;;;;;;5064490;28;20267;-76
2021/10/01 05:25:58;;;;;;;1.92;1.60;;;15.70;99.90;;;;;;5069499;28;20297;-75
2021/10/01 05:28:25;;;;;;;4.35;2.15;;;15.90;99.90;;;;;;5061529;28;20232;-76
2021/10/01 05:30:52;;;;;;;3.67;1.63;;;16.10;99.90;;;;;;5063794;28;20221;-76
2021/10/01 05:33:20;;;;;;;1.95;1.77;;;16.50;99.90;;;;;;5058653;28;20650;-76
2021/10/01 05:35:47;;;;;;;4.68;1.80;;;16.80;99.90;;;;;;5058265;28;20276;-75
2021/10/01 05:38:15;;;;;;;3.08;1.40;;;17.00;99.90;;;;;;5059508;28;20226;-75
2021/10/01 05:40:42;;;;;;;1.10;1.00;;;17.10;99.90;;;;;;5057991;28;20222;-75
2021/10/01 05:43:11;;;;;;;1.67;1.58;;;17.00;99.90;;;;;;5060052;28;20754;-74
2021/10/01 05:45:40;;;;;;;1.10;1.10;;;16.80;99.90;;;;;;5054757;28;20226;-75
2021/10/01 05:48:07;;;;;;;1.65;1.50;;;16.70;99.90;;;;;;5061393;28;20226;-76
2021/10/01 05:50:39;;;;;;;1.63;1.52;;;16.60;99.90;;;;;;5057677;28;20708;-76
2021/10/01 05:53:13;;;;;;;1.65;1.55;;;16.50;99.90;;;;;;5064009;28;20224;-75
2021/10/01 05:55:41;;;;;;;1.60;1.50;;;16.40;99.90;;;;;;5068051;28;20221;-76
2021/10/01 05:58:10;;;;;;;1.40;1.30;;;16.40;99.90;;;;;;5066370;28;20732;-76
2021/10/01 06:00:37;;;;;;;1.40;1.30;;;16.40;99.90;;;;;;5068395;28;20743;-76
2021/10/01 06:03:04;;;;;;;1.60;1.50;;;16.40;99.90;;;;;;5068220;28;20735;-76
2021/10/01 06:05:31;;;;;;;1.60;1.50;;;16.40;99.90;;;;;;5068026;28;20217;-76
2021/10/01 06:07:58;;;;;;;1.27;1.27;;;16.40;99.90;;;;;;5067226;28;20266;-76
2021/10/01 06:10:25;;;;;;;1.52;1.42;;;16.30;99.90;;;;;;5067740;28;20711;-75
2021/10/01 06:12:52;;;;;;;1.60;1.50;;;16.30;99.90;;;;;;5070748;28;20593;-74
2021/10/01 06:15:21;;;;;;;1.75;1.65;;;16.30;99.90;;;;;;5061474;28;20356;-76
2021/10/01 06:17:48;;;;;;;1.67;1.58;;;16.30;99.90;;;;;;5062350;28;20645;-75
2021/10/01 06:20:15;;;;;;;1.45;1.35;;;16.30;99.90;;;;;;5065857;28;20283;-76
2021/10/01 06:22:42;;;;;;;1.50;1.40;;;16.30;99.90;;;;;;5060978;28;20222;-76
2021/10/01 06:25:10;;;;;;;1.65;1.38;;;16.40;99.90;;;;;;5061341;28;20649;-76
2021/10/01 06:27:37;;;;;;;1.52;1.42;;;16.50;99.90;;;;;;5072973;28;20251;-77
2021/10/01 06:30:06;;;;;;;2.80;1.60;;;16.60;99.90;;;;;;5068478;28;20233;-76
2021/10/01 06:32:35;;;;;;;2.33;1.50;;;16.70;99.90;;;;;;5066287;28;20253;-76
2021/10/01 06:35:04;;;;;;;3.47;2.05;;;16.80;99.90;;;;;;5061780;28;20214;-76
2021/10/01 06:37:31;;;;;;;1.70;1.60;;;16.90;99.90;;;;;;5045466;28;20311;-76
2021/10/01 06:39:59;;;;;;;1.70;1.60;;;17.10;99.90;;;;;;5067799;28;20230;-76
2021/10/01 06:42:26;;;;;;;1.60;1.48;;;17.20;99.90;;;;;;5073361;28;20295;-76
2021/10/01 06:44:55;;;;;;;1.70;1.60;;;17.20;99.90;;;;;;5061806;28;20709;-76
2021/10/01 06:47:26;;;;;;;2.28;1.60;;;17.20;99.90;;;;;;5065101;28;20220;-76
2021/10/01 06:50:10;;;;;;;1.88;1.77;;;17.20;99.90;;;;;;5066928;28;20222;-76
2021/10/01 07:23:31;;;;;;;1.98;1.88;;;19.10;99.90;;;;;;5065415;28;20607;-76
2021/10/01 08:18:34;;;;;;;1.85;1.40;;;21.90;99.90;;;;;;5017858;28;20297;-73
2021/10/01 08:21:01;;;;;;;4.75;1.98;;;21.90;99.90;;;;;;5049268;28;20642;-76
2021/10/01 08:23:28;;;;;;;2.58;1.58;;;22.00;99.90;;;;;;5050743;28;20292;-76
2021/10/01 08:25:55;;;;;;;1.98;1.58;;;22.30;99.90;;;;;;5042574;28;20231;-76
2021/10/01 08:28:23;;;;;;;2.38;1.65;;;22.50;99.90;;;;;;5046315;28;20214;-76
2021/10/01 08:30:50;;;;;;;2.28;1.65;;;22.60;99.90;;;;;;5044786;28;20230;-76
2021/10/01 08:33:18;;;;;;;3.05;1.50;;;22.50;99.90;;;;;;5046270;28;20222;-76
2021/10/01 08:35:45;;;;;;;2.60;1.63;;;22.50;99.90;;;;;;5045341;28;20365;-76
2021/10/01 08:38:12;;;;;;;1.63;1.52;;;22.30;99.90;;;;;;5046600;28;20220;-76
2021/10/01 08:40:39;;;;;;;1.63;1.52;;;22.50;99.90;;;;;;5046985;28;20257;-76
2021/10/01 08:43:07;;;;;;;3.40;1.55;;;22.30;99.90;;;;;;5053980;22;20913;-74
2021/10/01 08:45:36;;;;;;;2.78;1.30;;;21.90;99.90;;;;;;5022823;28;20232;-75
2021/10/01 08:48:04;;;;;;;2.25;1.40;;;21.60;99.90;;;;;;5050456;28;20227;-74
2021/10/01 08:50:32;;;;;;;2.08;1.50;;;21.20;99.90;;;;;;5051415;28;20713;-73
2021/10/01 08:53:00;;;;;;;1.52;1.42;;;21.00;99.90;;;;;;5051538;28;20227;-73
2021/10/01 08:55:28;;;;;;;1.50;1.40;;;20.70;99.90;;;;;;5045932;28;20700;-73
2021/10/01 08:57:56;;;;;;;1.60;1.50;;;20.70;99.90;;;;;;5041726;28;21237;-72
2021/10/01 09:00:23;;;;;;;1.52;1.42;;;20.70;99.90;;;;;;5042247;28;20219;-73
2021/10/01 09:02:51;;;;;;;1.30;1.20;;;20.60;99.90;;;;;;5044062;28;20227;-75
2021/10/01 09:05:18;;;;;;;1.65;1.40;;;20.50;99.90;;;;;;5049210;28;20799;-73
2021/10/01 09:07:48;;;;;;;1.80;1.30;;;20.50;99.90;;;;;;5049971;28;20227;-73
2021/10/01 09:10:16;;;;;;;1.70;1.50;;;20.60;99.90;;;;;;5032740;28;20224;-73
2021/10/01 09:12:51;;;;;;;1.42;1.27;;;20.70;99.90;;;;;;5030449;28;20228;-72
2021/10/01 09:15:18;;;;;;;1.92;1.55;;;20.70;99.90;;;;;;5031607;28;20302;-73
2021/10/01 09:17:50;;;;;;;2.78;1.55;;;20.70;99.90;;;;;;5033323;28;20219;-73
2021/10/01 09:20:18;;;;;;;5.20;1.90;;;20.80;99.90;;;;;;5048936;28;20314;-72
2021/10/01 09:22:46;;;;;;;1.50;1.40;;;20.70;99.90;;;;;;5047053;28;20226;-73
2021/10/01 09:25:17;;;;;;;1.48;1.38;;;20.50;99.90;;;;;;5049496;28;20237;-73
2021/10/01 09:27:46;;;;;;;1.65;1.55;;;20.30;99.90;;;;;;5043941;28;20670;-72
2021/10/01 09:30:15;;;;;;;1.65;1.38;;;20.10;99.90;;;;;;5046779;28;20233;-73
2021/10/01 09:33:02;;;;;;;1.27;1.17;;;20.10;99.90;;;;;;5044932;28;20230;-75
2021/10/01 09:35:31;;;;;;;4.00;1.80;;;20.20;99.90;;;;;;5060094;28;20234;-76
2021/10/01 09:38:05;;;;;;;1.52;1.42;;;20.20;99.90;;;;;;5052203;28;20280;-75
2021/10/01 09:40:32;;;;;;;1.75;1.65;;;20.20;99.90;;;;;;5041792;28;20700;-75
2021/10/01 09:42:59;;;;;;;2.15;1.45;;;20.20;99.90;;;;;;5043151;28;20218;-72
2021/10/01 09:45:27;;;;;;;1.83;1.60;;;20.30;99.90;;;;;;5046247;28;20230;-74
2021/10/01 09:47:54;;;;;;;1.75;1.40;;;20.40;99.90;;;;;;5045930;28;20647;-73
2021/10/01 09:50:25;;;;;;;3.60;1.45;;;20.30;99.90;;;;;;5045507;28;20223;-74
2021/10/01 09:52:56;;;;;;;1.45;1.35;;;20.20;99.90;;;;;;5043737;28;20253;-75
2021/10/01 09:55:30;;;;;;;3.08;1.67;;;20.20;99.90;;;;;;5042234;28;20221;-73
2021/10/01 09:58:03;;;;;;;2.28;1.25;;;20.30;99.90;;;;;;5047177;28;20223;-73
2021/10/01 10:00:39;;;;;;;1.30;1.15;;;20.40;99.90;;;;;;5043485;28;20708;-72
2021/10/01 10:03:06;;;;;;;1.77;1.50;;;20.50;99.90;;;;;;5036275;28;20218;-72
2021/10/01 10:05:59;;;;;;;1.83;1.60;;;20.60;99.90;;;;;;5014914;28;20226;-74
2021/10/01 10:08:31;;;;;;;1.52;1.42;;;20.70;99.90;;;;;;5024642;28;20235;-72
2021/10/01 10:10:59;;;;;;;3.70;1.60;;;20.80;99.90;;;;;;5024693;28;20273;-72
2021/10/01 10:13:43;;;;;;;3.30;1.40;;;21.00;99.90;;;;;;5022969;28;20238;-72
2021/10/01 10:16:14;;;;;;;1.67;1.58;;;21.10;99.90;;;;;;5030679;28;20766;-73
2021/10/01 10:18:42;;;;;;;2.03;1.40;;;21.10;99.90;;;;;;5023493;28;20231;-72
2021/10/01 10:21:10;;;;;;;2.78;1.40;;;21.00;99.90;;;;;;5035612;28;20219;-72
2021/10/01 10:23:38;;;;;;;2.28;1.52;;;21.30;99.90;;;;;;5025817;28;20223;-72
2021/10/01 10:26:06;;;;;;;3.03;1.60;;;22.00;99.90;;;;;;5024147;28;20277;-73
2021/10/01 10:28:35;;;;;;;1.70;1.33;;;22.50;99.90;;;;;;5022461;28;20223;-74
2021/10/01 10:31:02;;;;;;;2.10;1.35;;;22.90;99.90;;;;;;5044639;28;20218;-75
2021/10/01 10:33:41;;;;;;;1.48;1.38;;;23.10;99.90;;;;;;5044006;28;20245;-73
2021/10/01 10:36:34;;;;;;;1.77;1.30;;;23.30;99.90;;;;;;5020636;28;20242;-72
2021/10/01 10:39:49;;;;;;;2.78;1.40;;;23.50;99.90;;;;;;5025930;28;20243;-73
2021/10/01 10:42:38;;;;;;;1.55;1.45;;;23.50;99.90;;;;;;5001528;28;20692;-73
2021/10/01 10:45:13;;;;;;;1.90;1.10;;;23.50;99.90;;;;;;5044663;28;20701;-73
2021/10/01 10:47:55;;;;;;;1.50;1.40;;;23.60;99.90;;;;;;5043547;28;20702;-73
2021/10/01 10:50:39;;;;;;;1.55;1.45;;;23.90;99.90;;;;;;5044113;28;20238;-74
2021/10/01 10:53:16;;;;;;;1.48;1.25;;;24.00;99.90;;;;;;5027900;28;20617;-73
2021/10/01 10:55:51;;;;;;;2.58;1.38;;;24.00;99.90;;;;;;5024282;28;20753;-73
2021/10/01 10:58:49;;;;;;;1.45;1.25;;;23.80;99.90;;;;;;5021654;28;20217;-72
2021/10/01 11:01:34;;;;;;;2.20;1.38;;;24.00;99.90;;;;;;5042124;28;20225;-73
2021/10/01 11:04:36;;;;;;;1.23;1.17;;;24.10;99.90;;;;;;5042100;28;20279;-75
2021/10/01 11:07:04;;;;;;;1.15;1.05;;;24.00;99.90;;;;;;5059741;28;20246;-73
2021/10/01 11:09:34;;;;;;;2.25;1.40;;;23.90;99.90;;;;;;5017349;28;20668;-73
2021/10/01 11:12:21;;;;;;;1.00;1.00;;;24.10;99.90;;;;;;5049809;28;20242;-73
2021/10/01 11:15:23;;;;;;;3.33;1.50;;;24.20;99.90;;;;;;5044497;28;20277;-73
2021/10/01 11:18:13;;;;;;;2.30;1.45;;;24.50;99.90;;;;;;5044917;28;20754;-74
2021/10/01 11:20:41;;;;;;;1.50;1.40;;;24.50;99.90;;;;;;5044443;28;20617;-74
2021/10/01 11:23:16;;;;;;;3.53;1.80;;;24.60;99.90;;;;;;5043356;28;20280;-73
2021/10/01 11:25:44;;;;;;;2.25;1.38;;;24.20;99.90;;;;;;5044892;28;20215;-73
2021/10/01 11:28:13;;;;;;;1.40;1.25;;;23.60;99.90;;;;;;5047418;28;20732;-74
2021/10/01 11:30:40;;;;;;;2.50;1.38;;;23.40;99.90;;;;;;5040480;28;20717;-73
2021/10/01 11:33:09;;;;;;;1.23;1.23;;;23.10;99.90;;;;;;5029239;28;20229;-72
2021/10/01 11:35:46;;;;;;;1.08;1.00;;;22.90;99.90;;;;;;5042093;28;20235;-73
2021/10/01 11:38:22;;;;;;;1.38;1.27;;;22.80;99.90;;;;;;5029421;28;20716;-73
2021/10/01 11:40:49;;;;;;;1.27;1.17;;;22.70;99.90;;;;;;5023581;28;20288;-73
2021/10/01 11:43:18;;;;;;;1.25;1.15;;;22.70;99.90;;;;;;5021181;28;20289;-73
2021/10/01 11:45:46;;;;;;;2.35;1.58;;;23.00;99.90;;;;;;5024838;28;20219;-73
2021/10/01 11:48:15;;;;;;;1.30;1.20;;;23.40;99.90;;;;;;5018102;28;20227;-74
2021/10/01 11:50:44;;;;;;;1.58;1.30;;;23.40;99.90;;;;;;5021652;28;20226;-74
2021/10/01 11:53:18;;;;;;;1.67;1.50;;;23.00;99.90;;;;;;5021521;28;20725;-73
2021/10/01 11:55:53;;;;;;;2.40;1.10;;;23.10;99.90;;;;;;5035209;28;20765;-73
2021/10/01 11:58:23;;;;;;;1.50;1.40;;;23.60;99.90;;;;;;5038678;28;20659;-73
2021/10/01 12:00:50;;;;;;;1.67;1.40;;;23.50;99.90;;;;;;5039828;28;20275;-73
2021/10/01 12:03:22;;;;;;;2.55;1.48;;;23.50;99.90;;;;;;5041869;28;20219;-73
2021/10/01 12:05:51;;;;;;;1.30;1.20;;;23.40;99.90;;;;;;5039261;28;20227;-72
2021/10/01 12:08:20;;;;;;;2.53;1.48;;;23.10;99.90;;;;;;5040852;28;20215;-73
2021/10/01 12:10:49;;;;;;;2.25;1.33;;;23.10;99.90;;;;;;5040031;28;20505;-73
2021/10/01 12:13:18;;;;;;;1.30;1.20;;;23.10;99.90;;;;;;5041188;28;20230;-73
2021/10/01 12:15:48;;;;;;;1.85;1.45;;;23.00;99.90;;;;;;5042199;28;20569;-73
2021/10/01 12:18:36;;;;;;;2.45;1.45;;;22.70;99.90;;;;;;5041160;28;20531;-73
2021/10/01 12:21:06;;;;;;;1.55;1.45;;;22.80;99.90;;;;;;5020252;28;20219;-73
2021/10/01 12:23:36;;;;;;;1.70;1.60;;;23.10;99.90;;;;;;5040798;28;20627;-74
2021/10/01 12:26:25;;;;;;;1.45;1.30;;;23.10;99.90;;;;;;5046804;28;20211;-74
2021/10/01 12:29:09;;;;;;;2.05;1.13;;;23.00;99.90;;;;;;5044275;28;20268;-72
2021/10/01 12:31:41;;;;;;;1.52;1.20;;;22.80;99.90;;;;;;5047031;28;20681;-73
2021/10/01 12:34:11;;;;;;;3.13;1.25;;;22.90;99.90;;;;;;5048015;28;20230;-72
2021/10/01 12:36:38;;;;;;;2.35;1.38;;;23.00;99.90;;;;;;5052905;28;20589;-74
2021/10/01 12:39:06;;;;;;;1.63;1.10;;;22.90;99.90;;;;;;5022347;28;20350;-72
2021/10/01 12:41:33;;;;;;;1.40;1.30;;;22.90;99.90;;;;;;5016359;28;20231;-72
2021/10/01 12:44:02;;;;;;;2.58;1.30;;;23.10;99.90;;;;;;5021726;28;20223;-73
2021/10/01 12:46:55;;;;;;;1.30;1.20;;;23.20;99.90;;;;;;5026607;28;20223;-72
2021/10/01 12:49:25;;;;;;;1.25;1.00;;;23.30;99.90;;;;;;5024660;28;20301;-73
2021/10/01 12:52:07;;;;;;;1.42;1.33;;;23.60;99.90;;;;;;5047057;28;20311;-73
2021/10/01 12:54:36;;;;;;;1.88;1.70;;;23.80;99.90;;;;;;5025158;28;20663;-73
2021/10/01 12:57:15;;;;;;;1.35;1.20;;;23.90;99.90;;;;;;5047021;28;20272;-73
2021/10/01 12:59:43;;;;;;;1.75;1.45;;;24.10;99.90;;;;;;5043968;28;20227;-72
2021/10/01 13:02:15;;;;;;;1.60;1.40;;;24.20;99.90;;;;;;5048041;28;20227;-72
2021/10/01 13:04:54;;;;;;;1.38;1.20;;;24.40;99.90;;;;;;5043759;28;20275;-73
2021/10/01 13:07:36;;;;;;;1.20;1.08;;;24.60;99.90;;;;;;5044791;28;20214;-74
2021/10/01 13:10:29;;;;;;;1.55;1.30;;;24.40;99.90;;;;;;5045635;28;20688;-72
2021/10/01 13:13:02;;;;;;;1.30;1.20;;;24.20;99.90;;;;;;5023184;28;20274;-72
2021/10/01 13:15:32;;;;;;;1.25;1.15;;;24.00;99.90;;;;;;5025153;28;20693;-72
2021/10/01 13:18:07;;;;;;;1.23;1.20;;;23.90;99.90;;;;;;5026822;28;20286;-73
2021/10/01 13:20:35;;;;;;;2.75;1.40;;;23.90;99.90;;;;;;5045538;28;20665;-72
2021/10/01 13:23:06;;;;;;;1.83;1.30;;;23.90;99.90;;;;;;5046654;28;20280;-71
2021/10/01 13:25:35;;;;;;;2.75;1.60;;;23.80;99.90;;;;;;5045264;28;20215;-72
2021/10/01 13:28:03;;;;;;;2.40;1.30;;;23.60;99.90;;;;;;5044044;28;20223;-73
2021/10/01 13:30:31;;;;;;;1.58;1.40;;;23.90;99.90;;;;;;5040712;28;20284;-73
2021/10/01 13:32:58;;;;;;;3.65;1.50;;;24.00;99.90;;;;;;5043772;28;20227;-74
2021/10/01 13:35:27;;;;;;;3.70;1.10;;;24.00;99.90;;;;;;5047573;28;20218;-72
2021/10/01 13:37:55;;;;;;;2.20;1.40;;;23.90;99.90;;;;;;5043913;28;20238;-72
2021/10/01 13:40:22;;;;;;;1.50;1.30;;;23.80;99.90;;;;;;5045054;28;20939;-73
2021/10/01 13:42:49;;;;;;;1.80;1.42;;;23.70;99.90;;;;;;5044669;28;20276;-72
2021/10/01 13:45:17;;;;;;;1.17;1.10;;;23.50;99.90;;;;;;5044303;28;20798;-71
2021/10/01 13:47:45;;;;;;;1.40;1.30;;;23.40;99.90;;;;;;5043308;28;20253;-72
2021/10/01 13:50:13;;;;;;;1.38;1.27;;;23.40;99.90;;;;;;5042381;28;20685;-74
2021/10/01 13:52:42;;;;;;;1.40;1.30;;;23.70;99.90;;;;;;5043960;28;20223;-74
2021/10/01 13:55:11;;;;;;;1.77;1.20;;;23.90;99.90;;;;;;5045918;28;20215;-73
2021/10/01 13:57:39;;;;;;;1.48;1.38;;;23.60;99.90;;;;;;5042818;28;20222;-73
2021/10/01 14:00:09;;;;;;;1.90;1.52;;;23.40;99.90;;;;;;5048658;28;20310;-73
2021/10/01 14:02:37;;;;;;;2.50;1.35;;;23.20;99.90;;;;;;5043180;28;20235;-74
2021/10/01 14:05:05;;;;;;;1.40;1.30;;;23.00;99.90;;;;;;5042168;28;20229;-74
2021/10/01 14:07:33;;;;;;;1.38;1.27;;;23.00;99.90;;;;;;5044727;28;20276;-74
2021/10/01 14:10:02;;;;;;;5.45;1.60;;;22.80;99.90;;;;;;5041511;28;20218;-74
2021/10/01 14:12:30;;;;;;;2.28;1.60;;;22.70;99.90;;;;;;5045192;28;20281;-73
2021/10/01 14:14:57;;;;;;;1.60;1.48;;;22.60;99.90;;;;;;5042533;28;20304;-74
2021/10/01 14:17:25;;;;;;;1.70;1.60;;;22.60;99.90;;;;;;5046523;28;20223;-75
2021/10/01 14:19:52;;;;;;;4.00;1.90;;;22.50;99.90;;;;;;5046989;28;20227;-74
2021/10/01 14:22:20;;;;;;;1.60;1.50;;;22.40;99.90;;;;;;5039288;28;20269;-73
2021/10/01 14:24:49;;;;;;;2.78;1.58;;;22.30;99.90;;;;;;5045223;28;20305;-74
2021/10/01 14:27:17;;;;;;;4.40;1.65;;;22.30;99.90;;;;;;5045337;28;20226;-74
2021/10/01 14:29:44;;;;;;;1.80;1.70;;;22.30;99.90;;;;;;5046318;28;20696;-74